Pagrindinis puslapis
METAR-TAF:

METAR-TAF

Oro uostai :

Subic Bay, Filipinai

platuma: 14-48N, ilguma: 120-16E, Aukštis: 18 m

Dabartinis oras

Ataskaita buvo paskelbta 1 valandą ir 6 minutes, ne 08:00 UTC
Vėjas 8 kt iš Rytų/Šiaurės Rytų
Temperatūra 29°C
Drėgmė 55%
Slėgis 1008 hPa
Matomumas 10 km arba daugiau
Mažai debesys ne aukštis 2000 ft
Su prošvaistėmis ne aukštis 8000 ft

METAR: RPLB 170800Z 06008KT 9999 FEW020 BKN080 29/19 Q1008 NOSIG RMK A2977

Laikas: 17:06 (09:06 UTC)

Prognozė

Ataskaita buvo paskelbta 4 valandos ir 6 minutes, ne 05:00 UTC
Prognozė galioja nuo 17 metu 06 UTC su 18 metu 06 UTC
Vėjas 8 kt iš Šiaurės Rytų
Matomumas 10 km arba daugiau
Mažai debesys ne aukštis 2000 ft
Su prošvaistėmis ne aukštis 8000 ft
Laikinai
nuo 17 metu 06 UTC su 17 metu 12 UTC
Vėjas 11 kt iš Rytų/Šiaurės Rytų
Matomumas: 9000 m
Išsisklaidę debesys ne aukštis 2000 ft
Su prošvaistėmis ne aukštis 8000 ft
lietus

TAF: RPLB 170500Z 1706/1806 05008KT 9999 FEW020 BKN080 TX32/1706Z TN24/1721Z TEMPO 1706/1712 06011KT 9000 -SHRA SCT020 BKN080

Orai ataskaitas ir orų prognozės (METAR, TAF).

turimą stotys yra geltonos ir raudonos taškus žemėlapyje.

Perkelti pele per norėdami pamatyti stoties vardą.

Tada spustelėkite, norėdami matyti oro stebėjimo ir prognozės.

Norėdami pakeisti žemėlapį: spustelėkite ant žalios mygtukų su juodo kryžiaus žemyn,; žalią mygtuką su brūkšneliu, jei norite nutolinti; arba žalių rodyklių gretimoms žemėlapius.


METAR-TAF: